createdAt,value
2023-04-29T00:03:52.946Z,11.9
2023-04-29T00:09:34.792Z,11.8
2023-04-29T00:14:07.042Z,11.8
2023-04-29T00:19:13.426Z,11.7
2023-04-29T00:24:19.806Z,11.7
2023-04-29T00:29:46.356Z,11.6
2023-04-29T00:34:32.675Z,11.6
2023-04-29T00:40:35.158Z,11.6
2023-04-29T00:45:06.490Z,11.5
2023-04-29T00:49:52.050Z,11.5
2023-04-29T00:54:58.316Z,11.4
2023-04-29T01:00:04.815Z,11.4
2023-04-29T01:10:21.308Z,11.3
2023-04-29T01:15:27.639Z,11.3
2023-04-29T01:20:58.077Z,11.2
2023-04-29T01:26:00.494Z,11.2
2023-04-29T01:30:46.818Z,11.2
2023-04-29T01:36:13.239Z,11.1
2023-04-29T01:40:59.698Z,11.1
2023-04-29T01:46:06.074Z,11.1
2023-04-29T01:51:12.426Z,11.1
2023-04-29T01:56:18.806Z,11.0
2023-04-29T02:06:31.562Z,11.0
2023-04-29T02:11:37.963Z,10.9
2023-04-29T02:16:46.066Z,10.9
2023-04-29T02:21:52.316Z,10.9
2023-04-29T02:26:58.705Z,10.9
2023-04-29T02:32:05.190Z,10.9
2023-04-29T02:37:35.543Z,10.8
2023-04-29T02:42:18.071Z,10.8
2023-04-29T02:47:24.720Z,10.8
2023-04-29T02:52:35.060Z,10.8
2023-04-29T02:57:37.435Z,10.8
2023-04-29T03:03:08.201Z,10.7
2023-04-29T03:07:50.193Z,10.7
2023-04-29T03:13:20.711Z,10.7
2023-04-29T03:18:03.080Z,10.7
2023-04-29T03:23:09.454Z,10.7
2023-04-29T03:28:35.877Z,10.6
2023-04-29T03:33:12.168Z,10.6
2023-04-29T03:38:48.653Z,10.6
2023-04-29T03:48:41.349Z,10.6
2023-04-29T03:54:11.817Z,10.5
2023-04-29T03:58:54.150Z,10.5
2023-04-29T04:04:00.782Z,10.4
2023-04-29T04:08:56.867Z,10.5
2023-04-29T04:14:33.367Z,10.4
2023-04-29T04:19:41.276Z,10.4
2023-04-29T04:24:47.728Z,10.4
2023-04-29T04:29:34.185Z,10.4
2023-04-29T04:34:40.691Z,10.3
2023-04-29T04:40:07.100Z,10.3
2023-04-29T04:44:53.436Z,10.2
2023-04-29T04:49:49.843Z,10.2
2023-04-29T04:55:06.211Z,10.2
2023-04-29T05:00:16.174Z,10.2
2023-04-29T05:10:19.026Z,10.2
2023-04-29T05:15:35.429Z,10.2
2023-04-29T05:20:41.826Z,10.2
2023-04-29T05:26:12.292Z,10.1
2023-04-29T05:30:54.711Z,10.1
2023-04-29T05:36:24.758Z,10.1
2023-04-29T05:41:11.154Z,10.1
2023-04-29T05:46:41.627Z,10.1
2023-04-29T05:51:23.921Z,10.1
2023-04-29T05:56:30.325Z,10.1
2023-04-29T06:01:36.664Z,10.1
2023-04-29T06:06:43.043Z,10.1
2023-04-29T06:16:45.778Z,10.1
2023-04-29T06:22:22.237Z,10.1
2023-04-29T06:26:58.557Z,10.1
2023-04-29T06:32:14.968Z,10.2
2023-04-29T06:37:41.414Z,10.1
2023-04-29T06:48:18.193Z,10.2
2023-04-29T06:52:30.610Z,10.2
2023-04-29T07:02:53.623Z,10.3
2023-04-29T07:08:00.034Z,10.3
2023-04-29T07:12:56.492Z,10.4
2023-04-29T07:18:12.940Z,10.4
2023-04-29T07:23:19.307Z,10.4
2023-04-29T07:28:25.688Z,10.5
2023-04-29T07:33:22.065Z,10.6
2023-04-29T07:40:15.700Z,10.7
2023-04-29T07:44:18.927Z,10.7
2023-04-29T07:49:26.414Z,10.8
2023-04-29T07:54:32.683Z,10.9
2023-04-29T08:00:03.096Z,10.9
2023-04-29T08:05:06.016Z,11.0
2023-04-29T08:10:16.092Z,11.1
2023-04-29T08:14:58.522Z,11.2
2023-04-29T08:20:04.909Z,11.3
2023-04-29T08:25:11.333Z,11.4
2023-04-29T08:30:07.665Z,11.5
2023-04-29T08:35:24.069Z,11.6
2023-04-29T08:40:30.472Z,11.7
2023-04-29T08:45:36.904Z,11.8
2023-04-29T08:51:03.282Z,11.9
2023-04-29T08:55:49.668Z,12.1
2023-04-29T09:00:56.035Z,12.2
2023-04-29T09:06:02.514Z,12.4
2023-04-29T09:10:59.086Z,12.6
2023-04-29T09:16:15.495Z,12.8
2023-04-29T09:21:22.867Z,13.1
2023-04-29T09:26:18.258Z,13.4
2023-04-29T09:31:34.660Z,13.7
2023-04-29T09:36:40.990Z,14.1
2023-04-29T09:41:47.402Z,14.6
2023-04-29T09:46:53.781Z,15.0
2023-04-29T09:52:00.376Z,15.4
2023-04-29T09:57:06.902Z,15.8
2023-04-29T10:02:52.388Z,16.3
2023-04-29T10:07:18.609Z,16.9
2023-04-29T10:12:26.035Z,17.5
2023-04-29T10:17:32.414Z,17.9
2023-04-29T10:22:38.873Z,18.3
2023-04-29T10:27:45.413Z,18.9
2023-04-29T10:33:05.819Z,19.4
2023-04-29T10:37:58.140Z,19.8
2023-04-29T10:43:04.573Z,20.0
2023-04-29T10:48:31.486Z,20.2
2023-04-29T10:53:17.905Z,20.4
2023-04-29T10:58:24.378Z,20.4
2023-04-29T11:03:30.805Z,20.4
2023-04-29T11:08:37.121Z,20.3
2023-04-29T11:13:43.511Z,20.1
2023-04-29T11:18:49.880Z,20.0
2023-04-29T11:23:56.292Z,19.9
2023-04-29T11:29:03.473Z,19.9
2023-04-29T11:34:09.636Z,19.9
2023-04-29T11:39:16.022Z,20.0
2023-04-29T11:44:22.430Z,20.1
2023-04-29T11:49:28.948Z,20.1
2023-04-29T11:54:35.392Z,19.5
2023-04-29T11:59:41.800Z,19.6
2023-04-29T12:04:48.384Z,19.8
2023-04-29T12:10:14.586Z,20.0
2023-04-29T12:14:51.016Z,20.1
2023-04-29T12:20:07.359Z,20.1
2023-04-29T12:25:13.856Z,20.0
2023-04-29T12:30:20.297Z,19.9
2023-04-29T12:35:50.684Z,19.8
2023-04-29T12:40:33.046Z,19.8
2023-04-29T12:45:39.426Z,19.8
2023-04-29T12:55:54.323Z,19.9
2023-04-29T13:01:20.804Z,20.1
2023-04-29T13:16:09.846Z,20.2
2023-04-29T13:21:26.387Z,20.4
2023-04-29T13:26:32.741Z,20.6
2023-04-29T13:31:39.207Z,20.8
2023-04-29T13:36:45.529Z,21.1
2023-04-29T13:41:51.946Z,21.4
2023-04-29T13:46:58.544Z,21.7
2023-04-29T13:52:34.846Z,21.9
2023-04-29T14:02:40.924Z,22.0
2023-04-29T14:07:48.195Z,22.0
2023-04-29T14:12:30.498Z,22.0
2023-04-29T14:17:36.888Z,22.0
2023-04-29T14:22:43.388Z,22.0
2023-04-29T14:27:49.789Z,21.9
2023-04-29T14:32:56.194Z,21.8
2023-04-29T14:38:02.534Z,21.7
2023-04-29T14:43:08.944Z,21.7
2023-04-29T14:48:15.424Z,21.7
2023-04-29T14:53:21.802Z,21.6
2023-04-29T14:58:28.203Z,21.5
2023-04-29T15:03:43.740Z,21.3
2023-04-29T15:09:02.598Z,21.2
2023-04-29T15:13:48.938Z,21.0
2023-04-29T15:18:56.490Z,20.9
2023-04-29T15:24:02.867Z,20.8
2023-04-29T15:29:29.318Z,20.6
2023-04-29T15:34:15.628Z,20.5
2023-04-29T15:39:22.017Z,20.4
2023-04-29T15:44:28.392Z,20.2
2023-04-29T15:54:42.220Z,19.9
2023-04-29T15:59:48.590Z,19.8
2023-04-29T16:04:54.992Z,19.6
2023-04-29T16:10:01.349Z,19.5
2023-04-29T16:25:24.677Z,19.2
2023-04-29T16:30:27.037Z,19.1
2023-04-29T16:35:33.450Z,19.0
2023-04-29T16:40:39.885Z,19.0
2023-04-29T16:45:46.280Z,19.0
2023-04-29T16:50:52.688Z,19.0
2023-04-29T16:55:59.041Z,19.0
2023-04-29T17:01:29.530Z,19.0
2023-04-29T17:06:31.930Z,18.9
2023-04-29T17:11:18.190Z,18.9
2023-04-29T17:26:37.330Z,18.8
2023-04-29T17:31:43.741Z,18.8
2023-04-29T17:36:50.082Z,18.7
2023-04-29T17:41:56.653Z,18.7
2023-04-29T17:47:27.099Z,18.5
2023-04-29T17:52:09.590Z,18.4
2023-04-29T17:57:44.057Z,18.2
2023-04-29T18:02:22.374Z,18.1
2023-04-29T18:07:28.725Z,17.9
2023-04-29T18:17:41.536Z,17.5
2023-04-29T18:22:47.864Z,17.3
2023-04-29T18:28:24.912Z,17.1
2023-04-29T18:33:56.765Z,16.9
2023-04-29T18:43:13.443Z,16.4
2023-04-29T18:48:19.948Z,16.2
2023-04-29T18:53:26.362Z,16.0
2023-04-29T18:58:56.769Z,15.8
2023-04-29T19:03:39.109Z,15.5
2023-04-29T19:08:45.510Z,15.3
2023-04-29T19:13:51.880Z,15.1
2023-04-29T19:18:58.273Z,14.9
2023-04-29T19:24:04.753Z,14.7
2023-04-29T19:29:11.197Z,14.5
2023-04-29T19:34:17.505Z,14.3
2023-04-29T19:39:23.901Z,14.1
2023-04-29T19:44:30.273Z,14.0
2023-04-29T19:49:36.660Z,13.8
2023-04-29T19:55:03.110Z,13.6
2023-04-29T19:59:49.444Z,13.4
2023-04-29T20:04:55.823Z,13.2
2023-04-29T20:10:02.224Z,13.1
2023-04-29T20:15:08.619Z,12.9
2023-04-29T20:20:14.972Z,12.7
2023-04-29T20:25:41.517Z,12.6
2023-04-29T20:31:06.932Z,12.4
2023-04-29T20:35:24.338Z,12.3
2023-04-29T20:40:41.790Z,12.1
2023-04-29T20:45:48.181Z,11.9
2023-04-29T20:51:14.612Z,11.8
2023-04-29T20:56:20.999Z,11.7
2023-04-29T21:01:07.351Z,11.6
2023-04-29T21:07:44.896Z,11.4
2023-04-29T21:11:19.105Z,11.3
2023-04-29T21:16:26.614Z,11.1
2023-04-29T21:21:32.909Z,11.0
2023-04-29T21:26:39.339Z,10.9
2023-04-29T21:31:49.744Z,10.7
2023-04-29T21:36:52.098Z,10.6
2023-04-29T21:42:18.549Z,10.5
2023-04-29T21:47:04.892Z,10.4
2023-04-29T21:52:11.255Z,10.3
2023-04-29T21:57:17.843Z,10.1
2023-04-29T22:03:08.272Z,10.0
2023-04-29T22:07:30.490Z,9.9
2023-04-29T22:12:56.923Z,9.8
2023-04-29T22:18:03.301Z,9.7
2023-04-29T22:23:09.718Z,9.5
2023-04-29T22:27:56.140Z,9.4
2023-04-29T22:33:02.702Z,9.3
2023-04-29T22:38:09.008Z,9.2
2023-04-29T22:43:15.419Z,9.1
2023-04-29T22:48:21.766Z,9.0
2023-04-29T22:53:28.150Z,8.9
2023-04-29T22:58:34.555Z,8.8
2023-04-29T23:03:41.038Z,8.7
2023-04-29T23:09:07.585Z,8.6
2023-04-29T23:14:13.971Z,8.5
2023-04-29T23:19:00.299Z,8.4
2023-04-29T23:24:06.667Z,8.3
2023-04-29T23:29:37.138Z,8.2
2023-04-29T23:34:19.432Z,8.1
2023-04-29T23:39:25.956Z,8.0
2023-04-29T23:44:32.543Z,7.9
2023-04-29T23:50:02.985Z,7.8
2023-04-29T23:54:45.284Z,7.7
2023-04-29T23:59:51.767Z,7.7
